sensor_id;sensor_type;location;lat;lon;timestamp;temperature;humidity
3628;DHT22;1830;49.000;12.074;2023-08-06T00:00:30;16.10;99.90
3628;DHT22;1830;49.000;12.074;2023-08-06T00:02:58;16.10;99.90
3628;DHT22;1830;49.000;12.074;2023-08-06T00:05:25;16.10;99.90
3628;DHT22;1830;49.000;12.074;2023-08-06T00:07:52;16.10;99.90
3628;DHT22;1830;49.000;12.074;2023-08-06T00:10:19;16.10;99.90
3628;DHT22;1830;49.000;12.074;2023-08-06T00:12:46;16.10;99.90
3628;DHT22;1830;49.000;12.074;2023-08-06T00:15:13;16.10;99.90
3628;DHT22;1830;49.000;12.074;2023-08-06T00:17:40;16.10;99.90
3628;DHT22;1830;49.000;12.074;2023-08-06T00:20:09;16.10;99.90
3628;DHT22;1830;49.000;12.074;2023-08-06T00:22:37;16.00;99.90
3628;DHT22;1830;49.000;12.074;2023-08-06T00:25:05;16.00;99.90
3628;DHT22;1830;49.000;12.074;2023-08-06T00:27:32;16.00;99.90
3628;DHT22;1830;49.000;12.074;2023-08-06T00:29:59;16.00;99.90
3628;DHT22;1830;49.000;12.074;2023-08-06T00:32:26;16.00;99.90
3628;DHT22;1830;49.000;12.074;2023-08-06T00:34:53;16.00;99.90
3628;DHT22;1830;49.000;12.074;2023-08-06T00:37:21;16.00;99.90
3628;DHT22;1830;49.000;12.074;2023-08-06T00:39:47;15.90;99.90
3628;DHT22;1830;49.000;12.074;2023-08-06T00:42:14;15.90;99.90
3628;DHT22;1830;49.000;12.074;2023-08-06T00:44:42;15.90;99.90
3628;DHT22;1830;49.000;12.074;2023-08-06T00:47:09;15.90;99.90
3628;DHT22;1830;49.000;12.074;2023-08-06T00:49:36;15.90;99.90
3628;DHT22;1830;49.000;12.074;2023-08-06T00:52:04;15.90;99.90
3628;DHT22;1830;49.000;12.074;2023-08-06T00:54:33;15.90;99.90
3628;DHT22;1830;49.000;12.074;2023-08-06T00:57:02;15.90;99.90
3628;DHT22;1830;49.000;12.074;2023-08-06T00:59:30;16.00;99.90
3628;DHT22;1830;49.000;12.074;2023-08-06T01:01:57;16.00;99.90
3628;DHT22;1830;49.000;12.074;2023-08-06T01:04:24;15.90;99.90
3628;DHT22;1830;49.000;12.074;2023-08-06T01:07:00;15.90;99.90
3628;DHT22;1830;49.000;12.074;2023-08-06T01:09:39;15.90;99.90
3628;DHT22;1830;49.000;12.074;2023-08-06T01:12:23;15.90;99.90
3628;DHT22;1830;49.000;12.074;2023-08-06T01:14:57;15.90;99.90
3628;DHT22;1830;49.000;12.074;2023-08-06T01:17:25;15.90;99.90
3628;DHT22;1830;49.000;12.074;2023-08-06T01:19:53;15.90;99.90
3628;DHT22;1830;49.000;12.074;2023-08-06T01:22:21;15.90;99.90
3628;DHT22;1830;49.000;12.074;2023-08-06T01:24:50;15.90;99.90
3628;DHT22;1830;49.000;12.074;2023-08-06T01:27:23;15.90;99.90
3628;DHT22;1830;49.000;12.074;2023-08-06T01:30:02;15.80;99.90
3628;DHT22;1830;49.000;12.074;2023-08-06T01:32:32;15.80;99.90
3628;DHT22;1830;49.000;12.074;2023-08-06T01:35:00;15.80;99.90
3628;DHT22;1830;49.000;12.074;2023-08-06T01:37:30;15.70;99.90
3628;DHT22;1830;49.000;12.074;2023-08-06T01:39:57;15.60;99.90
3628;DHT22;1830;49.000;12.074;2023-08-06T01:42:24;15.60;99.90
3628;DHT22;1830;49.000;12.074;2023-08-06T01:44:51;15.50;99.90
3628;DHT22;1830;49.000;12.074;2023-08-06T01:47:18;15.50;99.90
3628;DHT22;1830;49.000;12.074;2023-08-06T01:49:45;15.50;99.90
3628;DHT22;1830;49.000;12.074;2023-08-06T01:52:11;15.40;99.90
3628;DHT22;1830;49.000;12.074;2023-08-06T01:54:39;15.30;99.90
3628;DHT22;1830;49.000;12.074;2023-08-06T01:57:06;15.30;99.90
3628;DHT22;1830;49.000;12.074;2023-08-06T01:59:33;15.30;99.90
3628;DHT22;1830;49.000;12.074;2023-08-06T02:02:00;15.20;99.90
3628;DHT22;1830;49.000;12.074;2023-08-06T02:04:27;15.20;99.90
3628;DHT22;1830;49.000;12.074;2023-08-06T02:06:53;15.10;99.90
3628;DHT22;1830;49.000;12.074;2023-08-06T02:09:20;15.10;99.90
3628;DHT22;1830;49.000;12.074;2023-08-06T02:11:48;15.10;99.90
3628;DHT22;1830;49.000;12.074;2023-08-06T02:14:15;15.20;99.90
3628;DHT22;1830;49.000;12.074;2023-08-06T02:16:42;15.10;99.90
3628;DHT22;1830;49.000;12.074;2023-08-06T02:19:08;15.10;99.90
3628;DHT22;1830;49.000;12.074;2023-08-06T02:21:35;15.10;99.90
3628;DHT22;1830;49.000;12.074;2023-08-06T02:24:02;15.10;99.90
3628;DHT22;1830;49.000;12.074;2023-08-06T02:26:29;15.00;99.90
3628;DHT22;1830;49.000;12.074;2023-08-06T02:28:57;15.00;99.90
3628;DHT22;1830;49.000;12.074;2023-08-06T02:31:24;15.00;99.90
3628;DHT22;1830;49.000;12.074;2023-08-06T02:33:51;15.00;99.90
3628;DHT22;1830;49.000;12.074;2023-08-06T02:36:19;15.00;99.90
3628;DHT22;1830;49.000;12.074;2023-08-06T02:38:46;15.00;99.90
3628;DHT22;1830;49.000;12.074;2023-08-06T02:41:13;15.00;99.90
3628;DHT22;1830;49.000;12.074;2023-08-06T02:43:39;15.00;99.90
3628;DHT22;1830;49.000;12.074;2023-08-06T02:46:08;14.90;99.90
3628;DHT22;1830;49.000;12.074;2023-08-06T02:48:34;14.90;99.90
3628;DHT22;1830;49.000;12.074;2023-08-06T02:51:01;14.90;99.90
3628;DHT22;1830;49.000;12.074;2023-08-06T02:53:28;14.80;99.90
3628;DHT22;1830;49.000;12.074;2023-08-06T02:55:55;14.80;99.90
3628;DHT22;1830;49.000;12.074;2023-08-06T02:58:22;14.80;99.90
3628;DHT22;1830;49.000;12.074;2023-08-06T03:00:59;14.80;99.90
3628;DHT22;1830;49.000;12.074;2023-08-06T03:03:28;14.70;99.90
3628;DHT22;1830;49.000;12.074;2023-08-06T03:05:54;14.80;99.90
3628;DHT22;1830;49.000;12.074;2023-08-06T03:08:21;14.80;99.90
3628;DHT22;1830;49.000;12.074;2023-08-06T03:10:48;14.70;99.90
3628;DHT22;1830;49.000;12.074;2023-08-06T03:13:15;14.80;99.90
3628;DHT22;1830;49.000;12.074;2023-08-06T03:15:42;14.80;99.90
3628;DHT22;1830;49.000;12.074;2023-08-06T03:18:09;14.80;99.90
3628;DHT22;1830;49.000;12.074;2023-08-06T03:20:37;14.80;99.90
3628;DHT22;1830;49.000;12.074;2023-08-06T03:23:04;14.80;99.90
3628;DHT22;1830;49.000;12.074;2023-08-06T03:25:31;14.80;99.90
3628;DHT22;1830;49.000;12.074;2023-08-06T03:27:58;14.80;99.90
3628;DHT22;1830;49.000;12.074;2023-08-06T03:30:24;14.80;99.90
3628;DHT22;1830;49.000;12.074;2023-08-06T03:32:51;14.80;99.90
3628;DHT22;1830;49.000;12.074;2023-08-06T03:35:18;14.70;99.90
3628;DHT22;1830;49.000;12.074;2023-08-06T03:37:46;14.70;99.90
3628;DHT22;1830;49.000;12.074;2023-08-06T03:40:14;14.70;99.90
3628;DHT22;1830;49.000;12.074;2023-08-06T03:42:40;14.70;99.90
3628;DHT22;1830;49.000;12.074;2023-08-06T03:45:08;14.80;99.90
3628;DHT22;1830;49.000;12.074;2023-08-06T03:47:35;14.80;99.90
3628;DHT22;1830;49.000;12.074;2023-08-06T03:50:02;14.80;99.90
3628;DHT22;1830;49.000;12.074;2023-08-06T03:52:29;14.70;99.90
3628;DHT22;1830;49.000;12.074;2023-08-06T03:54:57;14.70;99.90
3628;DHT22;1830;49.000;12.074;2023-08-06T03:57:23;14.70;99.90
3628;DHT22;1830;49.000;12.074;2023-08-06T03:59:50;14.70;99.90
3628;DHT22;1830;49.000;12.074;2023-08-06T04:02:17;14.60;99.90
3628;DHT22;1830;49.000;12.074;2023-08-06T04:04:44;14.70;99.90
3628;DHT22;1830;49.000;12.074;2023-08-06T04:07:11;14.70;99.90
3628;DHT22;1830;49.000;12.074;2023-08-06T04:09:54;14.70;99.90
3628;DHT22;1830;49.000;12.074;2023-08-06T04:12:22;14.70;99.90
3628;DHT22;1830;49.000;12.074;2023-08-06T04:14:50;14.70;99.90
3628;DHT22;1830;49.000;12.074;2023-08-06T04:17:18;14.60;99.90
3628;DHT22;1830;49.000;12.074;2023-08-06T04:19:46;14.70;99.90
3628;DHT22;1830;49.000;12.074;2023-08-06T04:22:13;14.70;99.90
3628;DHT22;1830;49.000;12.074;2023-08-06T04:24:41;14.70;99.90
3628;DHT22;1830;49.000;12.074;2023-08-06T04:27:10;14.70;99.90
3628;DHT22;1830;49.000;12.074;2023-08-06T04:29:38;14.60;99.90
3628;DHT22;1830;49.000;12.074;2023-08-06T04:32:07;14.60;99.90
3628;DHT22;1830;49.000;12.074;2023-08-06T04:34:34;14.60;99.90
3628;DHT22;1830;49.000;12.074;2023-08-06T04:37:02;14.60;99.90
3628;DHT22;1830;49.000;12.074;2023-08-06T04:39:29;14.60;99.90
3628;DHT22;1830;49.000;12.074;2023-08-06T04:41:56;14.70;99.90
3628;DHT22;1830;49.000;12.074;2023-08-06T04:44:23;14.70;99.90
3628;DHT22;1830;49.000;12.074;2023-08-06T04:46:51;14.70;99.90
3628;DHT22;1830;49.000;12.074;2023-08-06T04:49:19;14.70;99.90
3628;DHT22;1830;49.000;12.074;2023-08-06T04:51:46;14.80;99.90
3628;DHT22;1830;49.000;12.074;2023-08-06T04:54:13;14.80;99.90
3628;DHT22;1830;49.000;12.074;2023-08-06T04:56:40;14.80;99.90
3628;DHT22;1830;49.000;12.074;2023-08-06T04:59:06;14.80;99.90
3628;DHT22;1830;49.000;12.074;2023-08-06T05:01:33;14.80;99.90
3628;DHT22;1830;49.000;12.074;2023-08-06T05:04:01;14.80;99.90
3628;DHT22;1830;49.000;12.074;2023-08-06T05:06:28;14.80;99.90
3628;DHT22;1830;49.000;12.074;2023-08-06T05:08:55;14.80;99.90
3628;DHT22;1830;49.000;12.074;2023-08-06T05:11:22;14.70;99.90
3628;DHT22;1830;49.000;12.074;2023-08-06T05:13:49;14.80;99.90
3628;DHT22;1830;49.000;12.074;2023-08-06T05:16:16;14.70;99.90
3628;DHT22;1830;49.000;12.074;2023-08-06T05:18:43;14.70;99.90
3628;DHT22;1830;49.000;12.074;2023-08-06T05:21:11;14.70;99.90
3628;DHT22;1830;49.000;12.074;2023-08-06T05:23:38;14.70;99.90
3628;DHT22;1830;49.000;12.074;2023-08-06T05:26:04;14.70;99.90
3628;DHT22;1830;49.000;12.074;2023-08-06T05:28:31;14.70;99.90
3628;DHT22;1830;49.000;12.074;2023-08-06T05:30:58;14.70;99.90
3628;DHT22;1830;49.000;12.074;2023-08-06T05:33:25;14.70;99.90
3628;DHT22;1830;49.000;12.074;2023-08-06T05:35:51;14.60;99.90
3628;DHT22;1830;49.000;12.074;2023-08-06T05:38:19;14.60;99.90
3628;DHT22;1830;49.000;12.074;2023-08-06T05:40:46;14.70;99.90
3628;DHT22;1830;49.000;12.074;2023-08-06T05:43:14;14.70;99.90
3628;DHT22;1830;49.000;12.074;2023-08-06T05:45:44;14.70;99.90
3628;DHT22;1830;49.000;12.074;2023-08-06T05:48:11;14.70;99.90
3628;DHT22;1830;49.000;12.074;2023-08-06T05:50:37;14.70;99.90
3628;DHT22;1830;49.000;12.074;2023-08-06T05:53:04;14.70;99.90
3628;DHT22;1830;49.000;12.074;2023-08-06T05:55:32;14.70;99.90
3628;DHT22;1830;49.000;12.074;2023-08-06T05:57:59;14.70;99.90
3628;DHT22;1830;49.000;12.074;2023-08-06T06:00:26;14.70;99.90
3628;DHT22;1830;49.000;12.074;2023-08-06T06:02:53;14.70;99.90
3628;DHT22;1830;49.000;12.074;2023-08-06T06:05:20;14.50;99.90
3628;DHT22;1830;49.000;12.074;2023-08-06T06:07:46;14.50;99.90
3628;DHT22;1830;49.000;12.074;2023-08-06T06:10:13;14.60;99.90
3628;DHT22;1830;49.000;12.074;2023-08-06T06:12:41;14.70;99.90
3628;DHT22;1830;49.000;12.074;2023-08-06T06:15:09;14.70;99.90
3628;DHT22;1830;49.000;12.074;2023-08-06T06:17:36;14.80;99.90
3628;DHT22;1830;49.000;12.074;2023-08-06T06:20:03;14.80;99.90
3628;DHT22;1830;49.000;12.074;2023-08-06T06:22:30;14.80;99.90
3628;DHT22;1830;49.000;12.074;2023-08-06T06:24:57;14.80;99.90
3628;DHT22;1830;49.000;12.074;2023-08-06T06:27:24;14.90;99.90
3628;DHT22;1830;49.000;12.074;2023-08-06T06:29:52;14.90;99.90
3628;DHT22;1830;49.000;12.074;2023-08-06T06:32:20;14.90;99.90
3628;DHT22;1830;49.000;12.074;2023-08-06T06:34:47;15.00;99.90
3628;DHT22;1830;49.000;12.074;2023-08-06T06:37:13;15.00;99.90
3628;DHT22;1830;49.000;12.074;2023-08-06T06:39:40;15.00;99.90
3628;DHT22;1830;49.000;12.074;2023-08-06T06:42:07;15.00;99.90
3628;DHT22;1830;49.000;12.074;2023-08-06T06:44:34;15.00;99.90
3628;DHT22;1830;49.000;12.074;2023-08-06T06:47:02;15.00;99.90
3628;DHT22;1830;49.000;12.074;2023-08-06T06:49:29;15.00;99.90
3628;DHT22;1830;49.000;12.074;2023-08-06T06:51:56;15.10;99.90
3628;DHT22;1830;49.000;12.074;2023-08-06T06:54:23;15.00;99.90
3628;DHT22;1830;49.000;12.074;2023-08-06T06:56:50;15.00;99.90
3628;DHT22;1830;49.000;12.074;2023-08-06T06:59:16;15.00;99.90
3628;DHT22;1830;49.000;12.074;2023-08-06T07:01:43;15.00;99.90
3628;DHT22;1830;49.000;12.074;2023-08-06T07:04:11;15.00;99.90
3628;DHT22;1830;49.000;12.074;2023-08-06T07:06:38;15.10;99.90
3628;DHT22;1830;49.000;12.074;2023-08-06T07:09:05;15.10;99.90
3628;DHT22;1830;49.000;12.074;2023-08-06T07:11:32;15.10;99.90
3628;DHT22;1830;49.000;12.074;2023-08-06T07:13:59;15.10;99.90
3628;DHT22;1830;49.000;12.074;2023-08-06T07:16:26;15.10;99.90
3628;DHT22;1830;49.000;12.074;2023-08-06T07:18:53;15.20;99.90
3628;DHT22;1830;49.000;12.074;2023-08-06T07:21:22;15.20;99.90
3628;DHT22;1830;49.000;12.074;2023-08-06T07:23:48;15.20;99.90
3628;DHT22;1830;49.000;12.074;2023-08-06T07:26:15;15.30;99.90
3628;DHT22;1830;49.000;12.074;2023-08-06T07:28:42;15.40;99.90
3628;DHT22;1830;49.000;12.074;2023-08-06T07:31:10;15.50;99.90
3628;DHT22;1830;49.000;12.074;2023-08-06T07:33:36;15.60;99.90
3628;DHT22;1830;49.000;12.074;2023-08-06T07:36:08;15.70;99.90
3628;DHT22;1830;49.000;12.074;2023-08-06T07:38:36;15.80;99.90
3628;DHT22;1830;49.000;12.074;2023-08-06T07:41:03;15.90;99.90
3628;DHT22;1830;49.000;12.074;2023-08-06T07:43:30;16.00;99.90
3628;DHT22;1830;49.000;12.074;2023-08-06T07:45:58;16.10;99.90
3628;DHT22;1830;49.000;12.074;2023-08-06T07:48:25;16.30;99.90
3628;DHT22;1830;49.000;12.074;2023-08-06T07:50:52;16.40;99.90
3628;DHT22;1830;49.000;12.074;2023-08-06T07:53:19;16.40;99.90
3628;DHT22;1830;49.000;12.074;2023-08-06T07:55:49;16.50;99.90
3628;DHT22;1830;49.000;12.074;2023-08-06T07:58:16;16.50;99.90
3628;DHT22;1830;49.000;12.074;2023-08-06T08:00:43;16.50;99.90
3628;DHT22;1830;49.000;12.074;2023-08-06T08:03:11;16.60;99.90
3628;DHT22;1830;49.000;12.074;2023-08-06T08:05:38;16.60;99.90
3628;DHT22;1830;49.000;12.074;2023-08-06T08:08:05;16.60;99.90
3628;DHT22;1830;49.000;12.074;2023-08-06T08:10:32;16.60;99.90
3628;DHT22;1830;49.000;12.074;2023-08-06T08:13:01;16.60;99.90
3628;DHT22;1830;49.000;12.074;2023-08-06T08:15:29;16.50;99.90
3628;DHT22;1830;49.000;12.074;2023-08-06T08:17:56;16.50;99.90
3628;DHT22;1830;49.000;12.074;2023-08-06T08:20:23;16.50;99.90
3628;DHT22;1830;49.000;12.074;2023-08-06T08:22:51;16.60;99.90
3628;DHT22;1830;49.000;12.074;2023-08-06T08:25:23;16.60;99.90
3628;DHT22;1830;49.000;12.074;2023-08-06T08:27:52;16.60;99.90
3628;DHT22;1830;49.000;12.074;2023-08-06T08:30:22;16.60;99.90
3628;DHT22;1830;49.000;12.074;2023-08-06T08:32:50;16.60;99.90
3628;DHT22;1830;49.000;12.074;2023-08-06T08:35:17;16.70;99.90
3628;DHT22;1830;49.000;12.074;2023-08-06T08:37:44;16.70;99.90
3628;DHT22;1830;49.000;12.074;2023-08-06T08:40:11;16.70;99.90
3628;DHT22;1830;49.000;12.074;2023-08-06T08:42:37;16.80;99.90
3628;DHT22;1830;49.000;12.074;2023-08-06T08:45:07;16.90;99.90
3628;DHT22;1830;49.000;12.074;2023-08-06T08:47:39;16.80;99.90
3628;DHT22;1830;49.000;12.074;2023-08-06T08:50:08;16.80;99.90
3628;DHT22;1830;49.000;12.074;2023-08-06T08:52:35;16.70;99.90
3628;DHT22;1830;49.000;12.074;2023-08-06T08:55:02;16.70;99.90
3628;DHT22;1830;49.000;12.074;2023-08-06T08:57:30;16.80;99.90
3628;DHT22;1830;49.000;12.074;2023-08-06T08:59:57;17.00;99.90
3628;DHT22;1830;49.000;12.074;2023-08-06T09:02:25;17.10;99.90
3628;DHT22;1830;49.000;12.074;2023-08-06T09:04:58;17.20;99.90
3628;DHT22;1830;49.000;12.074;2023-08-06T09:07:32;17.30;99.90
3628;DHT22;1830;49.000;12.074;2023-08-06T09:10:02;17.30;99.90
3628;DHT22;1830;49.000;12.074;2023-08-06T09:12:29;17.40;99.90
3628;DHT22;1830;49.000;12.074;2023-08-06T09:14:56;17.50;99.90
3628;DHT22;1830;49.000;12.074;2023-08-06T09:17:23;17.70;99.90
3628;DHT22;1830;49.000;12.074;2023-08-06T09:19:53;17.60;99.90
3628;DHT22;1830;49.000;12.074;2023-08-06T09:22:35;17.70;99.90
3628;DHT22;1830;49.000;12.074;2023-08-06T09:25:01;17.80;99.90
3628;DHT22;1830;49.000;12.074;2023-08-06T09:27:29;17.90;99.90
3628;DHT22;1830;49.000;12.074;2023-08-06T09:29:56;17.80;99.90
3628;DHT22;1830;49.000;12.074;2023-08-06T09:32:24;17.80;99.90
3628;DHT22;1830;49.000;12.074;2023-08-06T09:34:55;17.80;99.90
3628;DHT22;1830;49.000;12.074;2023-08-06T09:37:22;17.90;99.90
3628;DHT22;1830;49.000;12.074;2023-08-06T09:39:50;17.80;99.90
3628;DHT22;1830;49.000;12.074;2023-08-06T09:42:19;17.70;99.90
3628;DHT22;1830;49.000;12.074;2023-08-06T09:44:46;17.90;99.90
3628;DHT22;1830;49.000;12.074;2023-08-06T09:47:16;18.10;99.90
3628;DHT22;1830;49.000;12.074;2023-08-06T09:49:43;18.10;99.90
3628;DHT22;1830;49.000;12.074;2023-08-06T09:52:12;17.90;99.90
3628;DHT22;1830;49.000;12.074;2023-08-06T09:54:39;17.50;99.90
3628;DHT22;1830;49.000;12.074;2023-08-06T09:57:08;17.10;99.90
3628;DHT22;1830;49.000;12.074;2023-08-06T09:59:35;16.80;99.90
3628;DHT22;1830;49.000;12.074;2023-08-06T10:02:12;16.50;99.90
3628;DHT22;1830;49.000;12.074;2023-08-06T10:04:39;16.30;99.90
3628;DHT22;1830;49.000;12.074;2023-08-06T10:07:06;16.20;99.90
3628;DHT22;1830;49.000;12.074;2023-08-06T10:09:33;16.10;99.90
3628;DHT22;1830;49.000;12.074;2023-08-06T10:12:00;16.10;99.90
3628;DHT22;1830;49.000;12.074;2023-08-06T10:14:32;16.10;99.90
3628;DHT22;1830;49.000;12.074;2023-08-06T10:16:59;16.00;99.90
3628;DHT22;1830;49.000;12.074;2023-08-06T10:19:27;15.90;99.90
3628;DHT22;1830;49.000;12.074;2023-08-06T10:22:12;15.90;99.90
3628;DHT22;1830;49.000;12.074;2023-08-06T10:24:50;16.00;99.90
3628;DHT22;1830;49.000;12.074;2023-08-06T10:27:21;16.10;99.90
3628;DHT22;1830;49.000;12.074;2023-08-06T10:29:49;16.30;99.90
3628;DHT22;1830;49.000;12.074;2023-08-06T10:32:16;16.30;99.90
3628;DHT22;1830;49.000;12.074;2023-08-06T10:34:54;16.50;99.90
3628;DHT22;1830;49.000;12.074;2023-08-06T10:37:22;16.60;99.90
3628;DHT22;1830;49.000;12.074;2023-08-06T10:39:49;16.70;99.90
3628;DHT22;1830;49.000;12.074;2023-08-06T10:42:27;17.00;99.90
3628;DHT22;1830;49.000;12.074;2023-08-06T10:45:18;17.30;99.90
3628;DHT22;1830;49.000;12.074;2023-08-06T10:47:45;17.40;99.90
3628;DHT22;1830;49.000;12.074;2023-08-06T10:50:14;17.40;99.90
3628;DHT22;1830;49.000;12.074;2023-08-06T10:52:42;17.50;99.90
3628;DHT22;1830;49.000;12.074;2023-08-06T10:55:09;17.70;99.90
3628;DHT22;1830;49.000;12.074;2023-08-06T10:57:36;17.80;99.90
3628;DHT22;1830;49.000;12.074;2023-08-06T11:00:06;17.70;99.90
3628;DHT22;1830;49.000;12.074;2023-08-06T11:02:36;17.70;99.90
3628;DHT22;1830;49.000;12.074;2023-08-06T11:05:06;17.60;99.90
3628;DHT22;1830;49.000;12.074;2023-08-06T11:07:34;17.70;99.90
3628;DHT22;1830;49.000;12.074;2023-08-06T11:10:02;17.90;99.90
3628;DHT22;1830;49.000;12.074;2023-08-06T11:12:30;18.00;99.90
3628;DHT22;1830;49.000;12.074;2023-08-06T11:14:56;18.10;99.90
3628;DHT22;1830;49.000;12.074;2023-08-06T11:17:23;18.30;99.90
3628;DHT22;1830;49.000;12.074;2023-08-06T11:19:52;18.50;99.90
3628;DHT22;1830;49.000;12.074;2023-08-06T11:22:20;18.70;99.90
3628;DHT22;1830;49.000;12.074;2023-08-06T11:24:47;18.80;99.90
3628;DHT22;1830;49.000;12.074;2023-08-06T11:27:15;18.90;99.90
3628;DHT22;1830;49.000;12.074;2023-08-06T11:29:42;19.10;99.90
3628;DHT22;1830;49.000;12.074;2023-08-06T11:32:09;19.20;99.90
3628;DHT22;1830;49.000;12.074;2023-08-06T11:34:36;19.10;99.90
3628;DHT22;1830;49.000;12.074;2023-08-06T11:37:06;18.90;99.90
3628;DHT22;1830;49.000;12.074;2023-08-06T11:39:33;18.70;99.90
3628;DHT22;1830;49.000;12.074;2023-08-06T11:42:00;18.40;99.90
3628;DHT22;1830;49.000;12.074;2023-08-06T11:44:30;18.20;99.90
3628;DHT22;1830;49.000;12.074;2023-08-06T11:46:59;18.20;99.90
3628;DHT22;1830;49.000;12.074;2023-08-06T11:49:40;18.20;99.90
3628;DHT22;1830;49.000;12.074;2023-08-06T11:52:14;18.20;99.90
3628;DHT22;1830;49.000;12.074;2023-08-06T11:54:42;18.30;99.90
3628;DHT22;1830;49.000;12.074;2023-08-06T11:57:09;18.10;99.90
3628;DHT22;1830;49.000;12.074;2023-08-06T11:59:37;18.00;99.90
3628;DHT22;1830;49.000;12.074;2023-08-06T12:02:07;18.00;99.90
3628;DHT22;1830;49.000;12.074;2023-08-06T12:05:00;17.80;99.90
3628;DHT22;1830;49.000;12.074;2023-08-06T12:07:29;17.80;99.90
3628;DHT22;1830;49.000;12.074;2023-08-06T12:09:56;17.80;99.90
3628;DHT22;1830;49.000;12.074;2023-08-06T12:12:23;17.90;99.90
3628;DHT22;1830;49.000;12.074;2023-08-06T12:14:50;18.10;99.90
3628;DHT22;1830;49.000;12.074;2023-08-06T12:17:17;18.10;99.90
3628;DHT22;1830;49.000;12.074;2023-08-06T12:19:45;18.10;99.90
3628;DHT22;1830;49.000;12.074;2023-08-06T12:22:13;18.00;99.90
3628;DHT22;1830;49.000;12.074;2023-08-06T12:24:45;18.00;99.90
3628;DHT22;1830;49.000;12.074;2023-08-06T12:27:12;17.80;99.90
3628;DHT22;1830;49.000;12.074;2023-08-06T12:29:41;17.80;99.90
3628;DHT22;1830;49.000;12.074;2023-08-06T12:32:08;17.90;99.90
3628;DHT22;1830;49.000;12.074;2023-08-06T12:34:35;17.90;99.90
3628;DHT22;1830;49.000;12.074;2023-08-06T12:37:02;18.00;99.90
3628;DHT22;1830;49.000;12.074;2023-08-06T12:39:30;18.20;99.90
3628;DHT22;1830;49.000;12.074;2023-08-06T12:41:58;18.00;99.90
3628;DHT22;1830;49.000;12.074;2023-08-06T12:44:25;17.70;99.90
3628;DHT22;1830;49.000;12.074;2023-08-06T12:46:52;17.70;99.90
3628;DHT22;1830;49.000;12.074;2023-08-06T12:49:19;17.40;99.90
3628;DHT22;1830;49.000;12.074;2023-08-06T12:51:47;17.20;99.90
3628;DHT22;1830;49.000;12.074;2023-08-06T12:54:14;17.00;99.90
3628;DHT22;1830;49.000;12.074;2023-08-06T12:56:41;16.80;99.90
3628;DHT22;1830;49.000;12.074;2023-08-06T12:59:09;16.40;99.90
3628;DHT22;1830;49.000;12.074;2023-08-06T13:01:37;16.30;99.90
3628;DHT22;1830;49.000;12.074;2023-08-06T13:04:04;16.30;99.90
3628;DHT22;1830;49.000;12.074;2023-08-06T13:06:30;16.20;99.90
3628;DHT22;1830;49.000;12.074;2023-08-06T13:09:01;16.20;99.90
3628;DHT22;1830;49.000;12.074;2023-08-06T13:11:28;16.30;99.90
3628;DHT22;1830;49.000;12.074;2023-08-06T13:13:56;16.60;99.90
3628;DHT22;1830;49.000;12.074;2023-08-06T13:16:24;17.00;99.90
3628;DHT22;1830;49.000;12.074;2023-08-06T13:18:54;17.10;99.90
3628;DHT22;1830;49.000;12.074;2023-08-06T13:21:21;17.30;99.90
3628;DHT22;1830;49.000;12.074;2023-08-06T13:23:48;17.10;99.90
3628;DHT22;1830;49.000;12.074;2023-08-06T13:26:15;17.40;99.90
3628;DHT22;1830;49.000;12.074;2023-08-06T13:28:42;17.50;99.90
3628;DHT22;1830;49.000;12.074;2023-08-06T13:31:10;17.70;99.90
3628;DHT22;1830;49.000;12.074;2023-08-06T13:33:38;17.80;99.90
3628;DHT22;1830;49.000;12.074;2023-08-06T13:36:05;17.70;99.90
3628;DHT22;1830;49.000;12.074;2023-08-06T13:38:31;17.70;99.90
3628;DHT22;1830;49.000;12.074;2023-08-06T13:41:01;17.70;99.90
3628;DHT22;1830;49.000;12.074;2023-08-06T13:43:28;17.70;99.90
3628;DHT22;1830;49.000;12.074;2023-08-06T13:45:55;17.50;99.90
3628;DHT22;1830;49.000;12.074;2023-08-06T13:48:22;17.70;99.90
3628;DHT22;1830;49.000;12.074;2023-08-06T13:50:51;17.60;99.90
3628;DHT22;1830;49.000;12.074;2023-08-06T13:53:18;17.50;99.90
3628;DHT22;1830;49.000;12.074;2023-08-06T13:55:45;17.30;99.90
3628;DHT22;1830;49.000;12.074;2023-08-06T13:58:12;17.30;99.90
3628;DHT22;1830;49.000;12.074;2023-08-06T14:00:38;17.50;99.90
3628;DHT22;1830;49.000;12.074;2023-08-06T14:03:05;17.70;99.90
3628;DHT22;1830;49.000;12.074;2023-08-06T14:05:32;17.80;99.90
3628;DHT22;1830;49.000;12.074;2023-08-06T14:08:00;18.00;99.90
3628;DHT22;1830;49.000;12.074;2023-08-06T14:10:27;18.10;99.90
3628;DHT22;1830;49.000;12.074;2023-08-06T14:12:54;18.20;99.90
3628;DHT22;1830;49.000;12.074;2023-08-06T14:15:20;18.50;99.90
3628;DHT22;1830;49.000;12.074;2023-08-06T14:17:47;18.20;99.90
3628;DHT22;1830;49.000;12.074;2023-08-06T14:20:14;18.10;99.90
3628;DHT22;1830;49.000;12.074;2023-08-06T14:22:41;18.10;99.90
3628;DHT22;1830;49.000;12.074;2023-08-06T14:25:09;18.10;99.90
3628;DHT22;1830;49.000;12.074;2023-08-06T14:27:36;17.90;99.90
3628;DHT22;1830;49.000;12.074;2023-08-06T14:30:05;17.70;99.90
3628;DHT22;1830;49.000;12.074;2023-08-06T14:32:32;17.60;99.90
3628;DHT22;1830;49.000;12.074;2023-08-06T14:34:59;17.50;99.90
3628;DHT22;1830;49.000;12.074;2023-08-06T14:37:25;17.40;99.90
3628;DHT22;1830;49.000;12.074;2023-08-06T14:39:52;17.20;99.90
3628;DHT22;1830;49.000;12.074;2023-08-06T14:42:20;17.10;99.90
3628;DHT22;1830;49.000;12.074;2023-08-06T14:44:47;17.00;99.90
3628;DHT22;1830;49.000;12.074;2023-08-06T14:47:14;17.00;99.90
3628;DHT22;1830;49.000;12.074;2023-08-06T14:49:41;16.90;99.90
3628;DHT22;1830;49.000;12.074;2023-08-06T14:52:08;16.90;99.90
3628;DHT22;1830;49.000;12.074;2023-08-06T14:54:35;16.80;99.90
3628;DHT22;1830;49.000;12.074;2023-08-06T14:57:02;16.70;99.90
3628;DHT22;1830;49.000;12.074;2023-08-06T14:59:30;16.70;99.90
3628;DHT22;1830;49.000;12.074;2023-08-06T15:01:58;16.60;99.90
3628;DHT22;1830;49.000;12.074;2023-08-06T15:04:24;16.50;99.90
3628;DHT22;1830;49.000;12.074;2023-08-06T15:06:51;16.40;99.90
3628;DHT22;1830;49.000;12.074;2023-08-06T15:09:18;16.30;99.90
3628;DHT22;1830;49.000;12.074;2023-08-06T15:11:47;16.20;99.90
3628;DHT22;1830;49.000;12.074;2023-08-06T15:14:14;16.10;99.90
3628;DHT22;1830;49.000;12.074;2023-08-06T15:16:42;16.00;99.90
3628;DHT22;1830;49.000;12.074;2023-08-06T15:19:09;15.80;99.90
3628;DHT22;1830;49.000;12.074;2023-08-06T15:21:35;15.70;99.90
3628;DHT22;1830;49.000;12.074;2023-08-06T15:24:02;15.60;99.90
3628;DHT22;1830;49.000;12.074;2023-08-06T15:26:29;15.60;99.90
3628;DHT22;1830;49.000;12.074;2023-08-06T15:28:56;15.50;99.90
3628;DHT22;1830;49.000;12.074;2023-08-06T15:31:23;15.40;99.90
3628;DHT22;1830;49.000;12.074;2023-08-06T15:33:51;15.30;99.90
3628;DHT22;1830;49.000;12.074;2023-08-06T15:36:19;15.30;99.90
3628;DHT22;1830;49.000;12.074;2023-08-06T15:38:46;15.20;99.90
3628;DHT22;1830;49.000;12.074;2023-08-06T15:41:13;15.10;99.90
3628;DHT22;1830;49.000;12.074;2023-08-06T15:43:41;15.00;99.90
3628;DHT22;1830;49.000;12.074;2023-08-06T15:46:07;15.00;99.90
3628;DHT22;1830;49.000;12.074;2023-08-06T15:48:34;14.90;99.90